Time;durP1;ratioP1;P1;durP2;ratioP2;P2;SDS_P1;SDS_P2;PMS_P1;PMS_P2;Temp;Humidity;BMP_temperature;BMP_pressure;BME280_temperature;BME280_humidity;BME280_pressure;Samples;Min_cycle;Max_cycle;Signal;HPM_P1;HPM_P2
2021/01/12 00:00:49;;;;;;;36.53;33.45;;;;;;;;;;5035989;28;20196;-79
2021/01/12 00:03:15;;;;;;;43.45;39.70;;;;;;;;;;5035881;28;20549;-79
2021/01/12 00:05:42;;;;;;;39.50;36.05;;;;;;;;;;5035923;28;20193;-79
2021/01/12 00:08:10;;;;;;;41.45;38.10;;;;;;;;;;5035823;28;20226;-79
2021/01/12 00:10:37;;;;;;;32.42;30.13;;;;;;;;;;5035805;28;20189;-79
2021/01/12 00:13:04;;;;;;;33.83;31.23;;;;;;;;;;5035402;28;20221;-79
2021/01/12 00:15:31;;;;;;;40.50;37.22;;;;;;;;;;5035295;28;20306;-79
2021/01/12 00:17:58;;;;;;;35.42;32.72;;;;;;;;;;5035713;28;20196;-79
2021/01/12 00:20:25;;;;;;;41.80;38.22;;;;;;;;;;5035643;28;20646;-79
2021/01/12 00:22:52;;;;;;;33.33;30.75;;;;;;;;;;5035339;28;20272;-79
2021/01/12 00:25:20;;;;;;;36.33;33.47;;;;;;;;;;5035261;28;20189;-79
2021/01/12 00:27:47;;;;;;;40.47;36.97;;;;;;;;;;5035463;28;20249;-78
2021/01/12 00:30:14;;;;;;;33.80;31.20;;;;;;;;;;5017966;28;20251;-79
2021/01/12 00:32:41;;;;;;;36.45;33.67;;;;;;;;;;5035054;28;20206;-79
2021/01/12 00:35:09;;;;;;;35.60;32.80;;;;;;;;;;5035083;28;20190;-79
2021/01/12 00:37:36;;;;;;;39.78;36.40;;;;;;;;;;5035279;28;20530;-79
2021/01/12 00:40:03;;;;;;;35.55;32.65;;;;;;;;;;5017522;28;20203;-79
2021/01/12 00:42:31;;;;;;;33.63;30.98;;;;;;;;;;5035178;28;20194;-79
2021/01/12 00:44:58;;;;;;;37.70;34.67;;;;;;;;;;5034682;28;20201;-79
2021/01/12 00:47:25;;;;;;;34.35;31.70;;;;;;;;;;5034735;28;20686;-79
2021/01/12 00:49:52;;;;;;;28.20;26.35;;;;;;;;;;5034582;28;20578;-79
2021/01/12 00:52:19;;;;;;;31.00;28.77;;;;;;;;;;5034698;28;20220;-79
2021/01/12 00:54:46;;;;;;;33.00;30.48;;;;;;;;;;5034859;28;20239;-79
2021/01/12 00:57:13;;;;;;;38.80;35.53;;;;;;;;;;5034695;28;20201;-79
2021/01/12 00:59:45;;;;;;;37.40;34.20;;;;;;;;;;5034795;28;20194;-79
2021/01/12 01:02:12;;;;;;;33.92;31.13;;;;;;;;;;5034784;28;20556;-79
2021/01/12 01:04:39;;;;;;;33.17;30.75;;;;;;;;;;5034591;28;20229;-79
2021/01/12 01:07:06;;;;;;;31.80;29.35;;;;;;;;;;5034663;28;20222;-79
2021/01/12 01:09:33;;;;;;;35.00;31.98;;;;;;;;;;5034408;28;20195;-79
2021/01/12 01:12:00;;;;;;;31.33;29.00;;;;;;;;;;5034571;28;20627;-79
2021/01/12 01:14:27;;;;;;;32.20;29.70;;;;;;;;;;5033815;28;20233;-79
2021/01/12 01:16:55;;;;;;;30.20;28.27;;;;;;;;;;5015516;28;20197;-79
2021/01/12 01:19:22;;;;;;;31.42;29.23;;;;;;;;;;5033704;28;20185;-79
2021/01/12 01:21:49;;;;;;;34.20;31.52;;;;;;;;;;5033693;28;20198;-79
2021/01/12 01:24:16;;;;;;;35.33;32.42;;;;;;;;;;5033664;28;20206;-79
2021/01/12 01:26:43;;;;;;;29.33;27.15;;;;;;;;;;5033578;28;20565;-79
2021/01/12 01:29:10;;;;;;;35.10;31.98;;;;;;;;;;5015941;28;20200;-79
2021/01/12 01:31:37;;;;;;;30.90;28.75;;;;;;;;;;5033214;28;20197;-79
2021/01/12 01:34:05;;;;;;;30.55;28.40;;;;;;;;;;5033226;28;20223;-79
2021/01/12 01:36:32;;;;;;;34.33;31.80;;;;;;;;;;5033345;28;20206;-79
2021/01/12 01:38:59;;;;;;;35.53;32.80;;;;;;;;;;5033111;28;20193;-79
2021/01/12 01:41:26;;;;;;;33.72;31.33;;;;;;;;;;5033443;28;20255;-79
2021/01/12 01:43:52;;;;;;;34.88;32.33;;;;;;;;;;5032834;28;20198;-80
2021/01/12 01:46:19;;;;;;;30.65;28.65;;;;;;;;;;5033230;28;20243;-79
2021/01/12 01:48:48;;;;;;;27.52;25.88;;;;;;;;;;5033344;28;20189;-79
2021/01/12 01:51:16;;;;;;;30.75;28.60;;;;;;;;;;5033044;28;20196;-79
2021/01/12 01:53:43;;;;;;;33.20;30.70;;;;;;;;;;5032918;28;20193;-79
2021/01/12 01:56:09;;;;;;;29.67;27.65;;;;;;;;;;5033093;28;20186;-79
2021/01/12 01:58:39;;;;;;;25.85;24.35;;;;;;;;;;5033243;28;20189;-79
2021/01/12 02:01:06;;;;;;;29.75;27.85;;;;;;;;;;5032872;28;20190;-79
2021/01/12 02:03:37;;;;;;;27.35;25.65;;;;;;;;;;5015231;28;20542;-79
2021/01/12 02:06:05;;;;;;;34.58;31.90;;;;;;;;;;5032790;28;20193;-79
2021/01/12 02:08:38;;;;;;;36.25;33.58;;;;;;;;;;5032740;28;20705;-79
2021/01/12 02:11:05;;;;;;;35.67;33.00;;;;;;;;;;5033080;28;20632;-79
2021/01/12 02:13:33;;;;;;;34.08;31.52;;;;;;;;;;5000145;28;914678;-79
2021/01/12 02:16:02;;;;;;;35.60;32.97;;;;;;;;;;5015864;28;20201;-79
2021/01/12 02:18:33;;;;;;;37.60;34.30;;;;;;;;;;5033460;28;20193;-79
2021/01/12 02:21:01;;;;;;;35.17;32.47;;;;;;;;;;5033370;28;20261;-80
2021/01/12 02:23:32;;;;;;;30.77;28.58;;;;;;;;;;5033656;28;20225;-79
2021/01/12 02:26:00;;;;;;;31.90;29.70;;;;;;;;;;5033572;28;20212;-79
2021/01/12 02:28:26;;;;;;;30.10;28.02;;;;;;;;;;5033552;28;20236;-80
2021/01/12 02:30:53;;;;;;;35.95;33.35;;;;;;;;;;5037941;28;20193;-80
2021/01/12 02:33:20;;;;;;;37.85;34.95;;;;;;;;;;5037284;28;20209;-79
2021/01/12 02:35:48;;;;;;;37.55;34.50;;;;;;;;;;5037341;28;20200;-80
2021/01/12 02:38:15;;;;;;;32.88;30.65;;;;;;;;;;5037544;28;20239;-79
2021/01/12 02:40:42;;;;;;;38.15;35.03;;;;;;;;;;5037548;28;20197;-80
2021/01/12 02:43:10;;;;;;;34.88;32.33;;;;;;;;;;5037167;28;20193;-79
2021/01/12 02:45:37;;;;;;;38.33;35.47;;;;;;;;;;5037133;28;20190;-80
2021/01/12 02:48:03;;;;;;;38.78;35.85;;;;;;;;;;5037076;28;20216;-80
2021/01/12 02:50:30;;;;;;;33.80;31.42;;;;;;;;;;5037446;28;20191;-79
2021/01/12 02:52:57;;;;;;;34.90;32.45;;;;;;;;;;5036992;28;20192;-79
2021/01/12 02:55:24;;;;;;;37.67;34.78;;;;;;;;;;5019289;28;20209;-79
2021/01/12 02:57:51;;;;;;;42.30;39.50;;;;;;;;;;5036943;28;20185;-80
2021/01/12 03:00:20;;;;;;;39.72;36.72;;;;;;;;;;5037139;28;20192;-79
2021/01/12 03:02:47;;;;;;;39.03;35.92;;;;;;;;;;5037064;28;20552;-79
2021/01/12 03:05:14;;;;;;;36.30;33.90;;;;;;;;;;5037119;28;20196;-79
2021/01/12 03:07:41;;;;;;;34.20;32.00;;;;;;;;;;5036945;28;20221;-79
2021/01/12 03:10:08;;;;;;;35.47;33.17;;;;;;;;;;5019248;28;20628;-79
2021/01/12 03:12:35;;;;;;;29.30;27.50;;;;;;;;;;5018809;28;20233;-79
2021/01/12 03:15:02;;;;;;;33.85;31.52;;;;;;;;;;5036446;28;20239;-80
2021/01/12 03:17:30;;;;;;;33.72;31.25;;;;;;;;;;5036536;28;20190;-80
2021/01/12 03:19:57;;;;;;;30.13;28.13;;;;;;;;;;5036513;28;20197;-79
2021/01/12 03:22:23;;;;;;;34.22;31.77;;;;;;;;;;5036369;28;20639;-79
2021/01/12 03:24:50;;;;;;;34.97;32.28;;;;;;;;;;5036744;28;20194;-79
2021/01/12 03:27:17;;;;;;;33.88;31.50;;;;;;;;;;5036357;28;20312;-79
2021/01/12 03:29:44;;;;;;;35.35;32.35;;;;;;;;;;5036320;28;20197;-79
2021/01/12 03:32:11;;;;;;;29.23;27.35;;;;;;;;;;5036583;28;20549;-79
2021/01/12 03:34:39;;;;;;;36.42;34.03;;;;;;;;;;5036204;28;20196;-79
2021/01/12 03:37:06;;;;;;;33.67;31.48;;;;;;;;;;5036156;28;20193;-80
2021/01/12 03:39:33;;;;;;;35.28;32.88;;;;;;;;;;5036032;28;20190;-79
2021/01/12 03:41:59;;;;;;;30.70;28.70;;;;;;;;;;5035992;28;20193;-80
2021/01/12 03:44:26;;;;;;;31.77;29.65;;;;;;;;;;5035921;28;20665;-79
2021/01/12 03:46:53;;;;;;;35.55;33.13;;;;;;;;;;5036252;28;20217;-79
2021/01/12 03:49:23;;;;;;;31.52;29.42;;;;;;;;;;5035963;28;20193;-80
2021/01/12 03:51:51;;;;;;;35.10;32.80;;;;;;;;;;5036177;28;20189;-79
2021/01/12 03:54:18;;;;;;;31.75;29.75;;;;;;;;;;5036109;28;20189;-79
2021/01/12 03:56:44;;;;;;;32.97;30.98;;;;;;;;;;5036115;28;20209;-80
2021/01/12 03:59:11;;;;;;;37.13;34.75;;;;;;;;;;5036066;28;20190;-79
2021/01/12 04:01:42;;;;;;;35.08;32.88;;;;;;;;;;5035771;28;20194;-79
2021/01/12 04:04:09;;;;;;;30.63;28.65;;;;;;;;;;5035654;28;20196;-80
2021/01/12 04:06:36;;;;;;;30.10;28.20;;;;;;;;;;5018146;28;20682;-79
2021/01/12 04:09:04;;;;;;;25.98;24.55;;;;;;;;;;5035928;28;20527;-79
2021/01/12 04:11:34;;;;;;;30.17;28.27;;;;;;;;;;5035465;28;20226;-80
2021/01/12 04:14:01;;;;;;;31.40;29.25;;;;;;;;;;5017687;28;20268;-79
2021/01/12 04:16:28;;;;;;;27.75;26.15;;;;;;;;;;5017989;28;20292;-80
2021/01/12 04:18:55;;;;;;;28.55;26.92;;;;;;;;;;5035407;28;20199;-80
2021/01/12 04:21:22;;;;;;;27.08;25.48;;;;;;;;;;5035666;28;20198;-80
2021/01/12 04:23:49;;;;;;;30.25;28.27;;;;;;;;;;5035610;28;20193;-80
2021/01/12 04:26:17;;;;;;;30.50;28.60;;;;;;;;;;5035249;28;20237;-79
2021/01/12 04:28:44;;;;;;;31.60;29.80;;;;;;;;;;5035304;28;20197;-80
2021/01/12 04:31:11;;;;;;;27.65;26.08;;;;;;;;;;5035539;28;20196;-80
2021/01/12 04:33:38;;;;;;;28.48;26.88;;;;;;;;;;5035036;28;20197;-80
2021/01/12 04:36:06;;;;;;;28.30;26.52;;;;;;;;;;5035373;28;20198;-79
2021/01/12 04:38:33;;;;;;;31.77;29.83;;;;;;;;;;5035393;28;20205;-80
2021/01/12 04:41:00;;;;;;;26.88;25.38;;;;;;;;;;5035397;28;20544;-79
2021/01/12 04:43:27;;;;;;;29.40;27.65;;;;;;;;;;5035050;28;20190;-80
2021/01/12 04:45:54;;;;;;;32.63;30.73;;;;;;;;;;5035263;28;20664;-80
2021/01/12 04:48:21;;;;;;;32.25;30.35;;;;;;;;;;5034555;28;20263;-80
2021/01/12 04:50:48;;;;;;;32.88;30.88;;;;;;;;;;5034824;28;20185;-80
2021/01/12 04:53:15;;;;;;;33.60;31.27;;;;;;;;;;5034570;28;20216;-80
2021/01/12 04:55:43;;;;;;;31.67;29.88;;;;;;;;;;5034714;28;20198;-80
2021/01/12 04:58:10;;;;;;;30.23;28.52;;;;;;;;;;5034960;28;20194;-80
2021/01/12 05:00:39;;;;;;;36.35;34.20;;;;;;;;;;5034480;28;20655;-80
2021/01/12 05:03:07;;;;;;;32.85;30.95;;;;;;;;;;5034863;28;20194;-80
2021/01/12 05:05:35;;;;;;;33.63;31.60;;;;;;;;;;5034827;28;20213;-80
2021/01/12 05:08:03;;;;;;;35.65;33.47;;;;;;;;;;5034455;28;20217;-79
2021/01/12 05:10:33;;;;;;;35.65;33.40;;;;;;;;;;5034398;28;20185;-80
2021/01/12 05:13:00;;;;;;;31.13;29.42;;;;;;;;;;5034105;28;20220;-80
2021/01/12 05:15:29;;;;;;;35.13;32.90;;;;;;;;;;5034065;28;20264;-79
2021/01/12 05:17:59;;;;;;;35.03;32.72;;;;;;;;;;5034600;28;20194;-80
2021/01/12 05:20:27;;;;;;;31.70;29.90;;;;;;;;;;5034572;28;20194;-80
2021/01/12 05:22:59;;;;;;;35.47;32.92;;;;;;;;;;5034583;28;20192;-80
2021/01/12 05:25:33;;;;;;;35.65;33.30;;;;;;;;;;5034504;28;20197;-80
2021/01/12 05:28:02;;;;;;;34.78;32.58;;;;;;;;;;5033901;28;20230;-80
2021/01/12 05:30:29;;;;;;;38.60;35.80;;;;;;;;;;5034330;28;20189;-79
2021/01/12 05:32:57;;;;;;;37.47;35.08;;;;;;;;;;5034327;28;20197;-79
2021/01/12 05:35:26;;;;;;;41.47;38.78;;;;;;;;;;5034330;28;20240;-80
2021/01/12 05:37:56;;;;;;;34.50;31.98;;;;;;;;;;5033989;28;20189;-80
2021/01/12 05:40:25;;;;;;;36.05;33.65;;;;;;;;;;5033720;28;20239;-79
2021/01/12 05:42:52;;;;;;;35.22;32.80;;;;;;;;;;5033992;28;20236;-80
2021/01/12 05:45:19;;;;;;;37.30;34.90;;;;;;;;;;5016645;28;20213;-79
2021/01/12 05:47:55;;;;;;;35.78;33.38;;;;;;;;;;5033773;28;20217;-80
2021/01/12 05:50:24;;;;;;;38.13;35.42;;;;;;;;;;5033851;28;20193;-80
2021/01/12 05:52:55;;;;;;;37.25;34.65;;;;;;;;;;5033981;28;20201;-79
2021/01/12 05:55:22;;;;;;;36.92;34.42;;;;;;;;;;5033985;28;20196;-79
2021/01/12 05:57:53;;;;;;;36.42;33.90;;;;;;;;;;5033812;28;20189;-80
2021/01/12 06:00:21;;;;;;;37.92;35.33;;;;;;;;;;5032893;28;20312;-79
2021/01/12 06:02:47;;;;;;;37.03;34.33;;;;;;;;;;5033298;28;20201;-78
2021/01/12 06:05:14;;;;;;;38.15;35.35;;;;;;;;;;5033636;28;20193;-79
2021/01/12 06:07:43;;;;;;;36.13;33.72;;;;;;;;;;5033771;28;20346;-79
2021/01/12 06:10:11;;;;;;;38.17;35.35;;;;;;;;;;5033553;28;20197;-79
2021/01/12 06:12:38;;;;;;;38.45;35.55;;;;;;;;;;5033221;28;20232;-78
2021/01/12 06:15:05;;;;;;;38.10;35.38;;;;;;;;;;5033342;28;20328;-78
2021/01/12 06:17:33;;;;;;;36.60;34.10;;;;;;;;;;5033432;28;20193;-79
2021/01/12 06:20:04;;;;;;;39.50;36.60;;;;;;;;;;5033341;28;20216;-79
2021/01/12 06:22:35;;;;;;;40.60;37.30;;;;;;;;;;5015912;28;20663;-79
2021/01/12 06:25:05;;;;;;;36.72;34.25;;;;;;;;;;5033326;28;20197;-79
2021/01/12 06:27:32;;;;;;;38.10;35.38;;;;;;;;;;5033293;28;20632;-79
2021/01/12 06:30:00;;;;;;;36.53;33.92;;;;;;;;;;5033052;28;20230;-79
2021/01/12 06:32:28;;;;;;;36.72;34.22;;;;;;;;;;5015628;28;20569;-79
2021/01/12 06:34:57;;;;;;;38.35;35.53;;;;;;;;;;5033573;28;20193;-79
2021/01/12 06:37:24;;;;;;;35.42;33.08;;;;;;;;;;5033580;28;20599;-79
2021/01/12 06:39:52;;;;;;;38.30;35.65;;;;;;;;;;5033232;28;20552;-79
2021/01/12 06:42:22;;;;;;;40.53;37.42;;;;;;;;;;5033499;28;20186;-79
2021/01/12 06:44:50;;;;;;;39.28;35.88;;;;;;;;;;5033493;28;20188;-79
2021/01/12 06:47:18;;;;;;;40.83;37.85;;;;;;;;;;5033046;28;20690;-79
2021/01/12 06:49:45;;;;;;;47.03;43.92;;;;;;;;;;5040721;28;20235;-79
2021/01/12 06:52:12;;;;;;;48.40;45.08;;;;;;;;;;5053065;28;20696;-79
2021/01/12 06:54:40;;;;;;;49.45;45.85;;;;;;;;;;5053322;28;20227;-79
2021/01/12 06:57:08;;;;;;;49.50;46.08;;;;;;;;;;5052976;28;20250;-79
2021/01/12 06:59:37;;;;;;;42.65;39.60;;;;;;;;;;5052966;28;20190;-79
2021/01/12 07:02:10;;;;;;;46.28;42.55;;;;;;;;;;5053211;28;20193;-78
2021/01/12 07:04:37;;;;;;;44.75;41.65;;;;;;;;;;5053146;28;20196;-79
2021/01/12 07:07:04;;;;;;;42.85;39.90;;;;;;;;;;5053151;28;20213;-79
2021/01/12 07:09:31;;;;;;;45.17;41.78;;;;;;;;;;5053187;28;20599;-79
2021/01/12 07:12:04;;;;;;;45.33;42.22;;;;;;;;;;5052721;28;20226;-79
2021/01/12 07:14:32;;;;;;;42.75;39.65;;;;;;;;;;5052731;28;20630;-79
2021/01/12 07:17:08;;;;;;;46.90;43.28;;;;;;;;;;5056505;28;20535;-79
2021/01/12 07:19:36;;;;;;;51.97;48.35;;;;;;;;;;5056474;28;20231;-79
2021/01/12 07:22:16;;;;;;;46.55;43.15;;;;;;;;;;5056440;28;20200;-78
2021/01/12 07:24:44;;;;;;;47.33;43.78;;;;;;;;;;5056916;28;20617;-79
2021/01/12 07:27:13;;;;;;;51.80;47.70;;;;;;;;;;5056635;28;20257;-79
2021/01/12 07:29:50;;;;;;;51.55;47.33;;;;;;;;;;5056537;28;20598;-79
2021/01/12 07:32:28;;;;;;;56.67;52.25;;;;;;;;;;5056480;28;20247;-79
2021/01/12 07:34:55;;;;;;;56.88;51.03;;;;;;;;;;5056523;28;20200;-79
2021/01/12 07:37:27;;;;;;;56.45;51.10;;;;;;;;;;5056510;28;20219;-80
2021/01/12 07:39:54;;;;;;;56.85;51.75;;;;;;;;;;5056396;28;20194;-79
2021/01/12 07:42:20;;;;;;;61.92;57.10;;;;;;;;;;5055982;28;20186;-86
2021/01/12 07:44:47;;;;;;;68.13;62.05;;;;;;;;;;5038204;28;20203;-80
2021/01/12 07:47:14;;;;;;;64.97;58.63;;;;;;;;;;5056074;28;20221;-80
2021/01/12 07:49:43;;;;;;;58.92;53.53;;;;;;;;;;5055932;28;20195;-81
2021/01/12 07:52:10;;;;;;;56.63;51.22;;;;;;;;;;5056279;28;20240;-81
2021/01/12 07:54:37;;;;;;;57.53;52.13;;;;;;;;;;5055931;28;20190;-81
2021/01/12 07:57:04;;;;;;;59.67;54.35;;;;;;;;;;5056080;28;20571;-79
2021/01/12 07:59:31;;;;;;;60.90;54.97;;;;;;;;;;5056059;28;20189;-79
2021/01/12 08:01:58;;;;;;;66.18;59.30;;;;;;;;;;5055933;28;20193;-79
2021/01/12 08:04:25;;;;;;;68.30;60.72;;;;;;;;;;5054883;28;20242;-79
2021/01/12 08:06:53;;;;;;;57.80;52.83;;;;;;;;;;5055313;28;20216;-78
2021/01/12 08:09:23;;;;;;;68.45;56.25;;;;;;;;;;5055791;28;20562;-77
2021/01/12 08:11:51;;;;;;;53.65;49.35;;;;;;;;;;5055605;28;20247;-77
2021/01/12 08:14:23;;;;;;;60.50;54.30;;;;;;;;;;5055296;28;20248;-77
2021/01/12 08:16:51;;;;;;;56.00;51.40;;;;;;;;;;5055329;28;20193;-77
2021/01/12 08:19:24;;;;;;;59.08;53.78;;;;;;;;;;5055297;28;20541;-79
2021/01/12 08:21:53;;;;;;;65.05;58.40;;;;;;;;;;5054353;28;20196;-74
2021/01/12 08:24:24;;;;;;;55.47;50.92;;;;;;;;;;5048355;28;20561;-75
2021/01/12 08:26:51;;;;;;;63.47;56.78;;;;;;;;;;5053791;28;20192;-79
2021/01/12 08:29:25;;;;;;;71.78;64.72;;;;;;;;;;5055089;28;20201;-77
2021/01/12 08:32:02;;;;;;;60.25;54.67;;;;;;;;;;5054617;28;20206;-75
2021/01/12 08:34:31;;;;;;;57.85;52.53;;;;;;;;;;5055055;28;20194;-74
2021/01/12 08:37:03;;;;;;;62.38;56.13;;;;;;;;;;5055315;28;20201;-75
2021/01/12 08:39:31;;;;;;;57.50;52.55;;;;;;;;;;5055004;28;20193;-74
2021/01/12 08:41:58;;;;;;;59.53;53.72;;;;;;;;;;5055132;28;20196;-74
2021/01/12 08:44:26;;;;;;;60.95;55.00;;;;;;;;;;5054937;28;20189;-74
2021/01/12 08:46:54;;;;;;;57.17;51.95;;;;;;;;;;5053753;28;20213;-74
2021/01/12 08:49:29;;;;;;;68.40;58.92;;;;;;;;;;5053590;28;20190;-73
2021/01/12 08:51:57;;;;;;;60.92;54.30;;;;;;;;;;5054925;28;20188;-73
2021/01/12 08:54:25;;;;;;;60.67;54.60;;;;;;;;;;5054993;28;20553;-74
2021/01/12 08:56:58;;;;;;;64.47;57.50;;;;;;;;;;5054656;28;20190;-74
2021/01/12 08:59:29;;;;;;;59.15;53.90;;;;;;;;;;5054819;28;20193;-74
2021/01/12 09:01:57;;;;;;;57.88;53.13;;;;;;;;;;5054412;28;20192;-74
2021/01/12 09:04:27;;;;;;;60.40;55.15;;;;;;;;;;5037273;28;20199;-74
2021/01/12 09:07:01;;;;;;;58.67;53.97;;;;;;;;;;5054404;28;20587;-74
2021/01/12 09:09:29;;;;;;;58.92;53.35;;;;;;;;;;5054404;28;20635;-74
2021/01/12 09:11:59;;;;;;;52.60;48.70;;;;;;;;;;5036496;28;20230;-74
2021/01/12 09:14:27;;;;;;;54.78;50.42;;;;;;;;;;5053981;28;20718;-74
2021/01/12 09:16:58;;;;;;;54.03;49.83;;;;;;;;;;5054566;28;20243;-74
2021/01/12 09:19:26;;;;;;;50.85;46.78;;;;;;;;;;5054481;28;20208;-74
2021/01/12 09:21:53;;;;;;;47.63;44.38;;;;;;;;;;5054181;28;20648;-74
2021/01/12 09:24:20;;;;;;;49.72;45.92;;;;;;;;;;5054431;28;20206;-74
2021/01/12 09:26:48;;;;;;;47.20;43.75;;;;;;;;;;5054306;28;20252;-74
2021/01/12 09:29:15;;;;;;;42.03;39.53;;;;;;;;;;5054089;28;20256;-74
2021/01/12 09:31:43;;;;;;;45.15;42.22;;;;;;;;;;5054185;28;20632;-74
2021/01/12 09:34:10;;;;;;;43.50;40.80;;;;;;;;;;5036704;28;20730;-73
2021/01/12 09:36:37;;;;;;;46.53;43.45;;;;;;;;;;5054214;28;20216;-73
2021/01/12 09:39:11;;;;;;;46.70;43.33;;;;;;;;;;5053520;28;20195;-74
2021/01/12 09:41:38;;;;;;;44.30;41.53;;;;;;;;;;5053682;28;20648;-76
2021/01/12 09:44:07;;;;;;;46.00;43.10;;;;;;;;;;5053627;28;20659;-73
2021/01/12 09:46:34;;;;;;;44.65;41.70;;;;;;;;;;5053765;28;20246;-73
2021/01/12 09:49:01;;;;;;;46.72;43.92;;;;;;;;;;5053591;28;20223;-74
2021/01/12 09:51:28;;;;;;;46.20;43.50;;;;;;;;;;5053916;28;20201;-73
2021/01/12 09:53:55;;;;;;;46.03;43.22;;;;;;;;;;5052223;28;20192;-74
2021/01/12 09:56:22;;;;;;;43.83;41.33;;;;;;;;;;5053750;28;20192;-74
2021/01/12 09:58:52;;;;;;;42.78;40.28;;;;;;;;;;5054083;28;20197;-74
2021/01/12 10:01:21;;;;;;;41.20;38.65;;;;;;;;;;5053767;28;20190;-74
2021/01/12 10:03:48;;;;;;;41.65;39.30;;;;;;;;;;5053800;28;20194;-74
2021/01/12 10:06:18;;;;;;;41.35;38.97;;;;;;;;;;5053871;28;20193;-74
2021/01/12 10:08:46;;;;;;;40.97;38.47;;;;;;;;;;5052855;28;20224;-74
2021/01/12 10:11:13;;;;;;;41.83;39.00;;;;;;;;;;5053168;28;20601;-74
2021/01/12 10:13:41;;;;;;;41.95;39.25;;;;;;;;;;5051785;28;20587;-74
2021/01/12 10:16:08;;;;;;;45.03;42.17;;;;;;;;;;5053605;28;20192;-74
2021/01/12 10:18:35;;;;;;;41.78;39.08;;;;;;;;;;5053639;28;20206;-74
2021/01/12 10:21:02;;;;;;;42.92;40.30;;;;;;;;;;5050355;28;20204;-74
2021/01/12 10:23:29;;;;;;;42.75;39.92;;;;;;;;;;5049742;28;20220;-74
2021/01/12 10:25:56;;;;;;;63.88;60.10;;;;;;;;;;5053180;28;20203;-74
2021/01/12 10:28:24;;;;;;;64.88;61.15;;;;;;;;;;5053481;28;20225;-74
2021/01/12 10:30:51;;;;;;;65.00;61.50;;;;;;;;;;5033547;28;20193;-74
2021/01/12 10:33:18;;;;;;;65.28;61.83;;;;;;;;;;5053169;28;20189;-79
2021/01/12 10:35:46;;;;;;;68.60;65.10;;;;;;;;;;5053251;28;20188;-78
2021/01/12 10:38:13;;;;;;;64.15;60.55;;;;;;;;;;5053131;28;20189;-79
2021/01/12 10:40:40;;;;;;;61.83;58.42;;;;;;;;;;5053201;28;20217;-80
2021/01/12 10:43:08;;;;;;;61.38;57.55;;;;;;;;;;5052571;28;20220;-74
2021/01/12 10:45:35;;;;;;;58.35;54.97;;;;;;;;;;5052743;28;20246;-75
2021/01/12 10:48:02;;;;;;;56.38;53.08;;;;;;;;;;5035297;28;20232;-75
2021/01/12 10:50:29;;;;;;;55.45;52.15;;;;;;;;;;5054495;28;20193;-76
2021/01/12 10:52:57;;;;;;;56.78;53.50;;;;;;;;;;5057216;28;20280;-75
2021/01/12 10:55:24;;;;;;;58.55;55.35;;;;;;;;;;5056821;28;20635;-78
2021/01/12 10:57:51;;;;;;;58.45;55.25;;;;;;;;;;5056889;28;20192;-77
2021/01/12 11:00:21;;;;;;;56.47;53.38;;;;;;;;;;5056781;28;20535;-74
2021/01/12 11:02:49;;;;;;;54.08;51.08;;;;;;;;;;5056090;28;20285;-75
2021/01/12 11:05:16;;;;;;;55.80;52.60;;;;;;;;;;5057000;28;20188;-74
2021/01/12 11:07:44;;;;;;;53.63;50.72;;;;;;;;;;5056598;28;20557;-74
2021/01/12 11:10:20;;;;;;;52.97;50.08;;;;;;;;;;5056005;28;20192;-76
2021/01/12 11:12:48;;;;;;;53.20;50.28;;;;;;;;;;5056192;28;20694;-75
2021/01/12 11:15:15;;;;;;;55.45;52.42;;;;;;;;;;5056473;28;20241;-74
2021/01/12 11:17:42;;;;;;;52.67;49.88;;;;;;;;;;5056582;28;20193;-74
2021/01/12 11:20:11;;;;;;;51.65;48.95;;;;;;;;;;5056749;28;20196;-75
2021/01/12 11:22:39;;;;;;;50.83;47.97;;;;;;;;;;5056285;28;20241;-74
2021/01/12 11:25:07;;;;;;;48.55;45.95;;;;;;;;;;5056249;28;20189;-75
2021/01/12 11:27:37;;;;;;;47.75;45.15;;;;;;;;;;5056343;28;20224;-74
2021/01/12 11:30:05;;;;;;;45.10;42.63;;;;;;;;;;5056278;28;20189;-75
2021/01/12 11:32:32;;;;;;;44.08;41.70;;;;;;;;;;5056260;28;20189;-74
2021/01/12 11:35:00;;;;;;;44.15;41.53;;;;;;;;;;5056197;28;20192;-74
2021/01/12 11:37:29;;;;;;;43.60;41.10;;;;;;;;;;5056165;28;20204;-75
2021/01/12 11:39:56;;;;;;;43.70;40.85;;;;;;;;;;5056646;28;20189;-76
2021/01/12 11:42:23;;;;;;;44.38;42.05;;;;;;;;;;5056646;28;20189;-75
2021/01/12 11:44:50;;;;;;;46.67;43.67;;;;;;;;;;5056258;28;20201;-75
2021/01/12 11:47:18;;;;;;;43.35;40.97;;;;;;;;;;5038467;28;20196;-74
2021/01/12 11:49:47;;;;;;;41.20;38.42;;;;;;;;;;5056171;28;20200;-75
2021/01/12 11:52:14;;;;;;;35.05;32.95;;;;;;;;;;5056456;28;20205;-75
2021/01/12 11:54:41;;;;;;;32.88;30.70;;;;;;;;;;5056272;28;20192;-75
2021/01/12 11:57:09;;;;;;;33.00;30.88;;;;;;;;;;5056052;28;20215;-75
2021/01/12 11:59:36;;;;;;;32.88;30.83;;;;;;;;;;5056076;28;20289;-75
2021/01/12 12:02:04;;;;;;;31.60;29.55;;;;;;;;;;5056384;28;20574;-75
2021/01/12 12:04:31;;;;;;;33.28;30.70;;;;;;;;;;5055637;28;20196;-75
2021/01/12 12:07:00;;;;;;;30.77;28.98;;;;;;;;;;5056588;28;20207;-75
2021/01/12 12:09:27;;;;;;;29.60;27.95;;;;;;;;;;5055483;28;20706;-75
2021/01/12 12:11:54;;;;;;;28.83;26.67;;;;;;;;;;5055724;28;20224;-75
2021/01/12 12:14:22;;;;;;;29.33;27.10;;;;;;;;;;5055343;28;20233;-75
2021/01/12 12:16:49;;;;;;;29.90;27.80;;;;;;;;;;5055472;28;20193;-75
2021/01/12 12:19:17;;;;;;;28.63;26.20;;;;;;;;;;5037945;28;20211;-76
2021/01/12 12:21:46;;;;;;;28.60;26.42;;;;;;;;;;5055356;28;20633;-75
2021/01/12 12:24:14;;;;;;;28.20;26.00;;;;;;;;;;5055396;28;20635;-75
2021/01/12 12:26:41;;;;;;;28.92;26.50;;;;;;;;;;5037723;28;20215;-75
2021/01/12 12:29:08;;;;;;;29.25;26.75;;;;;;;;;;5055451;28;20222;-75
2021/01/12 12:31:35;;;;;;;30.50;28.15;;;;;;;;;;5055454;28;20189;-75
2021/01/12 12:34:03;;;;;;;29.58;27.67;;;;;;;;;;5055553;28;20546;-75
2021/01/12 12:36:31;;;;;;;30.80;28.05;;;;;;;;;;5055082;28;20193;-75
2021/01/12 12:38:58;;;;;;;28.77;26.48;;;;;;;;;;5054691;28;20205;-75
2021/01/12 12:41:26;;;;;;;29.73;27.55;;;;;;;;;;5055113;28;20206;-75
2021/01/12 12:43:53;;;;;;;29.00;27.00;;;;;;;;;;5037048;28;20208;-75
2021/01/12 12:46:24;;;;;;;29.02;26.80;;;;;;;;;;5055628;28;20520;-75
2021/01/12 12:48:51;;;;;;;29.73;27.50;;;;;;;;;;5054674;28;20225;-76
2021/01/12 12:51:18;;;;;;;29.55;27.52;;;;;;;;;;5037174;28;20207;-76
2021/01/12 12:53:48;;;;;;;30.25;27.75;;;;;;;;;;5055036;28;20269;-75
2021/01/12 12:56:16;;;;;;;30.90;28.00;;;;;;;;;;5055436;28;20631;-76
2021/01/12 12:58:43;;;;;;;29.85;27.70;;;;;;;;;;5054899;28;20205;-75
2021/01/12 13:01:11;;;;;;;30.42;28.13;;;;;;;;;;5054507;28;20631;-75
2021/01/12 13:03:38;;;;;;;28.88;26.25;;;;;;;;;;5037262;28;20212;-76
2021/01/12 13:06:06;;;;;;;28.38;25.30;;;;;;;;;;5054836;28;20192;-76
2021/01/12 13:08:33;;;;;;;28.38;26.10;;;;;;;;;;5054273;28;20329;-76
2021/01/12 13:11:02;;;;;;;26.88;24.90;;;;;;;;;;5054284;28;20226;-75
2021/01/12 13:13:29;;;;;;;26.70;24.50;;;;;;;;;;5053576;28;20231;-75
2021/01/12 13:15:56;;;;;;;30.60;28.45;;;;;;;;;;5054186;28;20628;-75
2021/01/12 13:18:24;;;;;;;46.97;44.22;;;;;;;;;;5054180;28;20192;-75
2021/01/12 13:20:51;;;;;;;42.20;39.90;;;;;;;;;;5054147;28;20200;-75
2021/01/12 13:23:18;;;;;;;45.80;43.38;;;;;;;;;;5054215;28;20638;-75
2021/01/12 13:25:46;;;;;;;45.67;42.90;;;;;;;;;;5054491;28;20211;-75
2021/01/12 13:28:14;;;;;;;43.53;41.35;;;;;;;;;;5054403;28;20217;-76
2021/01/12 13:30:43;;;;;;;45.05;42.45;;;;;;;;;;5054290;28;20201;-76
2021/01/12 13:33:10;;;;;;;45.70;42.92;;;;;;;;;;5053964;28;20189;-75
2021/01/12 13:35:37;;;;;;;47.10;44.70;;;;;;;;;;5053972;28;20638;-75
2021/01/12 13:38:04;;;;;;;44.78;42.30;;;;;;;;;;5054184;28;20215;-75
2021/01/12 13:40:31;;;;;;;44.97;42.50;;;;;;;;;;5054168;28;20202;-75
2021/01/12 13:42:59;;;;;;;43.85;41.33;;;;;;;;;;5054030;28;20635;-75
2021/01/12 13:45:27;;;;;;;42.90;40.38;;;;;;;;;;5053898;28;20238;-75
2021/01/12 13:47:54;;;;;;;41.15;38.95;;;;;;;;;;5053917;28;20217;-75
2021/01/12 13:50:21;;;;;;;41.55;39.17;;;;;;;;;;5053785;28;20190;-74
2021/01/12 13:52:49;;;;;;;44.63;42.05;;;;;;;;;;5053956;28;20192;-75
2021/01/12 13:55:16;;;;;;;39.33;37.22;;;;;;;;;;5053988;28;20193;-76
2021/01/12 13:57:44;;;;;;;41.05;38.65;;;;;;;;;;5053994;28;20185;-78
2021/01/12 14:00:11;;;;;;;41.47;39.25;;;;;;;;;;5053687;28;20188;-79
2021/01/12 14:02:40;;;;;;;44.00;41.45;;;;;;;;;;5053467;28;20227;-75
2021/01/12 14:05:07;;;;;;;41.17;38.83;;;;;;;;;;5053721;28;20201;-76
2021/01/12 14:07:34;;;;;;;29.75;27.77;;;;;;;;;;5053357;28;20654;-75
2021/01/12 14:10:01;;;;;;;30.45;28.38;;;;;;;;;;5053685;28;20193;-77
2021/01/12 14:12:28;;;;;;;28.42;26.63;;;;;;;;;;5053357;28;20217;-77
2021/01/12 14:14:55;;;;;;;27.17;25.45;;;;;;;;;;5032063;28;20256;-80
2021/01/12 14:17:23;;;;;;;27.13;25.50;;;;;;;;;;5033543;28;20190;-77
2021/01/12 14:19:54;;;;;;;27.58;25.50;;;;;;;;;;5033444;28;20209;-77